sensor_id;sensor_type;location;lat;lon;timestamp;P1;durP1;ratioP1;P2;durP2;ratioP2
67140;SDS011;54058;52.010;5.546;2022-12-18T00:01:56;52.53;;;21.05;;
67140;SDS011;54058;52.010;5.546;2022-12-18T00:04:24;55.55;;;21.52;;
67140;SDS011;54058;52.010;5.546;2022-12-18T00:06:50;48.08;;;20.48;;
67140;SDS011;54058;52.010;5.546;2022-12-18T00:09:17;50.00;;;21.20;;
67140;SDS011;54058;52.010;5.546;2022-12-18T00:11:42;51.30;;;20.70;;
67140;SDS011;54058;52.010;5.546;2022-12-18T00:14:08;56.45;;;22.98;;
67140;SDS011;54058;52.010;5.546;2022-12-18T00:16:36;54.05;;;22.45;;
67140;SDS011;54058;52.010;5.546;2022-12-18T00:19:03;56.25;;;22.65;;
67140;SDS011;54058;52.010;5.546;2022-12-18T00:21:29;51.67;;;21.63;;
67140;SDS011;54058;52.010;5.546;2022-12-18T00:23:56;60.33;;;21.55;;
67140;SDS011;54058;52.010;5.546;2022-12-18T00:26:24;58.63;;;23.38;;
67140;SDS011;54058;52.010;5.546;2022-12-18T00:28:52;57.28;;;22.17;;
67140;SDS011;54058;52.010;5.546;2022-12-18T00:31:20;53.90;;;21.63;;
67140;SDS011;54058;52.010;5.546;2022-12-18T00:33:48;59.10;;;21.85;;
67140;SDS011;54058;52.010;5.546;2022-12-18T00:36:15;51.28;;;19.67;;
67140;SDS011;54058;52.010;5.546;2022-12-18T00:38:45;54.92;;;21.80;;
67140;SDS011;54058;52.010;5.546;2022-12-18T00:41:12;54.25;;;21.70;;
67140;SDS011;54058;52.010;5.546;2022-12-18T00:43:59;53.35;;;21.15;;
67140;SDS011;54058;52.010;5.546;2022-12-18T00:46:24;58.00;;;23.15;;
67140;SDS011;54058;52.010;5.546;2022-12-18T00:48:50;51.13;;;21.38;;
67140;SDS011;54058;52.010;5.546;2022-12-18T00:51:15;61.00;;;24.83;;
67140;SDS011;54058;52.010;5.546;2022-12-18T00:53:41;55.75;;;22.90;;
67140;SDS011;54058;52.010;5.546;2022-12-18T00:56:07;61.70;;;22.45;;
67140;SDS011;54058;52.010;5.546;2022-12-18T00:58:32;62.08;;;22.52;;
67140;SDS011;54058;52.010;5.546;2022-12-18T01:00:58;55.75;;;22.85;;
67140;SDS011;54058;52.010;5.546;2022-12-18T01:03:23;63.63;;;25.15;;
67140;SDS011;54058;52.010;5.546;2022-12-18T01:05:49;61.38;;;24.08;;
67140;SDS011;54058;52.010;5.546;2022-12-18T01:08:14;57.15;;;24.08;;
67140;SDS011;54058;52.010;5.546;2022-12-18T01:10:40;58.92;;;23.48;;
67140;SDS011;54058;52.010;5.546;2022-12-18T01:13:06;50.30;;;22.17;;
67140;SDS011;54058;52.010;5.546;2022-12-18T01:15:32;55.17;;;21.90;;
67140;SDS011;54058;52.010;5.546;2022-12-18T01:17:57;59.15;;;22.98;;
67140;SDS011;54058;52.010;5.546;2022-12-18T01:20:23;60.47;;;23.30;;
67140;SDS011;54058;52.010;5.546;2022-12-18T01:22:48;55.63;;;21.70;;
67140;SDS011;54058;52.010;5.546;2022-12-18T01:25:14;52.10;;;21.50;;
67140;SDS011;54058;52.010;5.546;2022-12-18T01:27:40;53.13;;;22.15;;
67140;SDS011;54058;52.010;5.546;2022-12-18T01:30:05;53.45;;;21.90;;
67140;SDS011;54058;52.010;5.546;2022-12-18T01:32:32;48.00;;;21.30;;
67140;SDS011;54058;52.010;5.546;2022-12-18T01:34:57;53.10;;;21.45;;
67140;SDS011;54058;52.010;5.546;2022-12-18T01:37:23;50.05;;;20.48;;
67140;SDS011;54058;52.010;5.546;2022-12-18T01:39:49;59.83;;;20.90;;
67140;SDS011;54058;52.010;5.546;2022-12-18T01:42:15;52.28;;;22.25;;
67140;SDS011;54058;52.010;5.546;2022-12-18T01:45:04;53.03;;;20.57;;
67140;SDS011;54058;52.010;5.546;2022-12-18T01:50:16;52.97;;;20.83;;
67140;SDS011;54058;52.010;5.546;2022-12-18T01:52:42;43.27;;;18.10;;
67140;SDS011;54058;52.010;5.546;2022-12-18T01:55:11;51.13;;;20.63;;
67140;SDS011;54058;52.010;5.546;2022-12-18T01:57:38;46.47;;;20.17;;
67140;SDS011;54058;52.010;5.546;2022-12-18T02:00:09;53.30;;;21.27;;
67140;SDS011;54058;52.010;5.546;2022-12-18T02:02:37;55.28;;;19.70;;
67140;SDS011;54058;52.010;5.546;2022-12-18T02:05:03;49.17;;;19.33;;
67140;SDS011;54058;52.010;5.546;2022-12-18T02:07:33;48.17;;;19.30;;
67140;SDS011;54058;52.010;5.546;2022-12-18T02:15:41;47.83;;;19.90;;
67140;SDS011;54058;52.010;5.546;2022-12-18T02:18:10;44.17;;;19.87;;
67140;SDS011;54058;52.010;5.546;2022-12-18T02:20:45;53.33;;;20.23;;
67140;SDS011;54058;52.010;5.546;2022-12-18T02:26:41;47.33;;;20.00;;
67140;SDS011;54058;52.010;5.546;2022-12-18T02:29:26;43.25;;;19.70;;
67140;SDS011;54058;52.010;5.546;2022-12-18T02:31:58;47.90;;;20.43;;
67140;SDS011;54058;52.010;5.546;2022-12-18T02:34:26;49.10;;;20.42;;
67140;SDS011;54058;52.010;5.546;2022-12-18T02:36:54;46.93;;;19.47;;
67140;SDS011;54058;52.010;5.546;2022-12-18T02:39:22;54.13;;;18.87;;
67140;SDS011;54058;52.010;5.546;2022-12-18T02:44:15;49.53;;;19.37;;
67140;SDS011;54058;52.010;5.546;2022-12-18T02:46:42;47.17;;;19.43;;
67140;SDS011;54058;52.010;5.546;2022-12-18T02:51:55;51.77;;;20.60;;
67140;SDS011;54058;52.010;5.546;2022-12-18T02:59:55;44.53;;;19.87;;
67140;SDS011;54058;52.010;5.546;2022-12-18T03:02:47;46.47;;;18.67;;
67140;SDS011;54058;52.010;5.546;2022-12-18T03:05:20;45.37;;;19.33;;
67140;SDS011;54058;52.010;5.546;2022-12-18T03:08:01;48.57;;;19.90;;
67140;SDS011;54058;52.010;5.546;2022-12-18T03:10:34;46.90;;;18.87;;
67140;SDS011;54058;52.010;5.546;2022-12-18T03:13:05;43.73;;;18.13;;
67140;SDS011;54058;52.010;5.546;2022-12-18T03:15:42;45.60;;;18.50;;
67140;SDS011;54058;52.010;5.546;2022-12-18T03:18:16;39.13;;;17.80;;
67140;SDS011;54058;52.010;5.546;2022-12-18T03:20:54;39.23;;;18.43;;
67140;SDS011;54058;52.010;5.546;2022-12-18T03:23:24;42.33;;;18.33;;
67140;SDS011;54058;52.010;5.546;2022-12-18T03:25:54;44.77;;;19.00;;
67140;SDS011;54058;52.010;5.546;2022-12-18T03:28:24;40.73;;;18.00;;
67140;SDS011;54058;52.010;5.546;2022-12-18T03:30:52;42.50;;;18.08;;
67140;SDS011;54058;52.010;5.546;2022-12-18T03:33:25;44.57;;;18.97;;
67140;SDS011;54058;52.010;5.546;2022-12-18T03:35:57;42.93;;;18.60;;
67140;SDS011;54058;52.010;5.546;2022-12-18T03:38:23;45.47;;;19.27;;
67140;SDS011;54058;52.010;5.546;2022-12-18T03:40:58;42.70;;;17.93;;
67140;SDS011;54058;52.010;5.546;2022-12-18T03:46:02;44.33;;;19.40;;
67140;SDS011;54058;52.010;5.546;2022-12-18T03:48:56;43.80;;;19.60;;
67140;SDS011;54058;52.010;5.546;2022-12-18T03:51:28;33.53;;;17.10;;
67140;SDS011;54058;52.010;5.546;2022-12-18T03:54:02;35.17;;;16.00;;
67140;SDS011;54058;52.010;5.546;2022-12-18T03:56:32;36.50;;;16.83;;
67140;SDS011;54058;52.010;5.546;2022-12-18T03:59:02;37.57;;;16.27;;
67140;SDS011;54058;52.010;5.546;2022-12-18T04:01:31;37.03;;;17.47;;
67140;SDS011;54058;52.010;5.546;2022-12-18T04:03:59;32.73;;;16.00;;
67140;SDS011;54058;52.010;5.546;2022-12-18T04:06:26;35.65;;;15.85;;
67140;SDS011;54058;52.010;5.546;2022-12-18T04:08:53;37.92;;;16.63;;
67140;SDS011;54058;52.010;5.546;2022-12-18T04:11:19;37.00;;;16.43;;
67140;SDS011;54058;52.010;5.546;2022-12-18T04:13:45;38.83;;;16.23;;
67140;SDS011;54058;52.010;5.546;2022-12-18T04:16:11;35.80;;;15.97;;
67140;SDS011;54058;52.010;5.546;2022-12-18T04:18:36;41.70;;;16.73;;
67140;SDS011;54058;52.010;5.546;2022-12-18T04:21:02;35.60;;;16.13;;
67140;SDS011;54058;52.010;5.546;2022-12-18T04:23:28;37.00;;;16.70;;
67140;SDS011;54058;52.010;5.546;2022-12-18T04:25:54;40.77;;;16.87;;
67140;SDS011;54058;52.010;5.546;2022-12-18T04:28:20;34.10;;;16.27;;
67140;SDS011;54058;52.010;5.546;2022-12-18T04:30:49;36.47;;;17.47;;
67140;SDS011;54058;52.010;5.546;2022-12-18T04:33:14;32.33;;;16.23;;
67140;SDS011;54058;52.010;5.546;2022-12-18T04:35:41;34.47;;;15.80;;
67140;SDS011;54058;52.010;5.546;2022-12-18T04:38:07;38.20;;;16.47;;
67140;SDS011;54058;52.010;5.546;2022-12-18T04:40:35;35.63;;;15.98;;
67140;SDS011;54058;52.010;5.546;2022-12-18T04:43:01;33.25;;;16.23;;
67140;SDS011;54058;52.010;5.546;2022-12-18T04:45:27;33.43;;;14.87;;
67140;SDS011;54058;52.010;5.546;2022-12-18T04:47:53;35.03;;;15.37;;
67140;SDS011;54058;52.010;5.546;2022-12-18T04:50:18;36.73;;;15.73;;
67140;SDS011;54058;52.010;5.546;2022-12-18T04:52:44;34.57;;;15.50;;
67140;SDS011;54058;52.010;5.546;2022-12-18T04:55:09;29.60;;;14.47;;
67140;SDS011;54058;52.010;5.546;2022-12-18T04:57:35;35.53;;;14.20;;
67140;SDS011;54058;52.010;5.546;2022-12-18T05:00:00;28.17;;;14.23;;
67140;SDS011;54058;52.010;5.546;2022-12-18T05:02:26;28.50;;;15.10;;
67140;SDS011;54058;52.010;5.546;2022-12-18T05:04:52;35.50;;;14.60;;
67140;SDS011;54058;52.010;5.546;2022-12-18T05:07:17;29.73;;;14.43;;
67140;SDS011;54058;52.010;5.546;2022-12-18T05:09:43;30.83;;;14.43;;
67140;SDS011;54058;52.010;5.546;2022-12-18T05:12:09;30.77;;;14.20;;
67140;SDS011;54058;52.010;5.546;2022-12-18T05:14:34;38.00;;;14.00;;
67140;SDS011;54058;52.010;5.546;2022-12-18T05:17:00;33.47;;;13.80;;
67140;SDS011;54058;52.010;5.546;2022-12-18T05:19:25;30.70;;;14.00;;
67140;SDS011;54058;52.010;5.546;2022-12-18T05:21:51;25.37;;;12.90;;
67140;SDS011;54058;52.010;5.546;2022-12-18T05:24:17;29.13;;;13.90;;
67140;SDS011;54058;52.010;5.546;2022-12-18T05:26:42;27.53;;;12.63;;
67140;SDS011;54058;52.010;5.546;2022-12-18T05:29:08;32.50;;;13.97;;
67140;SDS011;54058;52.010;5.546;2022-12-18T05:31:37;27.83;;;12.90;;
67140;SDS011;54058;52.010;5.546;2022-12-18T05:34:03;26.20;;;12.83;;
67140;SDS011;54058;52.010;5.546;2022-12-18T05:36:28;31.27;;;12.83;;
67140;SDS011;54058;52.010;5.546;2022-12-18T05:38:54;31.47;;;13.53;;
67140;SDS011;54058;52.010;5.546;2022-12-18T05:41:19;27.73;;;12.93;;
67140;SDS011;54058;52.010;5.546;2022-12-18T05:43:45;26.20;;;13.20;;
67140;SDS011;54058;52.010;5.546;2022-12-18T05:46:15;29.90;;;13.57;;
67140;SDS011;54058;52.010;5.546;2022-12-18T05:48:42;25.53;;;13.23;;
67140;SDS011;54058;52.010;5.546;2022-12-18T05:51:13;35.23;;;13.13;;
67140;SDS011;54058;52.010;5.546;2022-12-18T05:53:41;25.33;;;12.63;;
67140;SDS011;54058;52.010;5.546;2022-12-18T05:56:09;25.60;;;13.13;;
67140;SDS011;54058;52.010;5.546;2022-12-18T05:58:37;26.23;;;11.80;;
67140;SDS011;54058;52.010;5.546;2022-12-18T06:01:17;28.50;;;13.43;;
67140;SDS011;54058;52.010;5.546;2022-12-18T06:03:44;31.57;;;13.03;;
67140;SDS011;54058;52.010;5.546;2022-12-18T06:06:17;24.70;;;12.43;;
67140;SDS011;54058;52.010;5.546;2022-12-18T06:08:47;27.17;;;13.07;;
67140;SDS011;54058;52.010;5.546;2022-12-18T06:11:16;26.20;;;13.30;;
67140;SDS011;54058;52.010;5.546;2022-12-18T06:13:44;23.43;;;12.07;;
67140;SDS011;54058;52.010;5.546;2022-12-18T06:16:11;28.23;;;12.60;;
67140;SDS011;54058;52.010;5.546;2022-12-18T06:18:37;24.13;;;12.60;;
67140;SDS011;54058;52.010;5.546;2022-12-18T06:21:02;24.00;;;12.80;;
67140;SDS011;54058;52.010;5.546;2022-12-18T06:23:28;27.80;;;13.30;;
67140;SDS011;54058;52.010;5.546;2022-12-18T06:25:54;28.63;;;12.03;;
67140;SDS011;54058;52.010;5.546;2022-12-18T06:28:20;28.17;;;12.80;;
67140;SDS011;54058;52.010;5.546;2022-12-18T06:30:46;24.53;;;12.13;;
67140;SDS011;54058;52.010;5.546;2022-12-18T06:33:13;27.65;;;12.57;;
67140;SDS011;54058;52.010;5.546;2022-12-18T06:35:39;21.83;;;11.97;;
67140;SDS011;54058;52.010;5.546;2022-12-18T06:38:05;26.37;;;12.50;;
67140;SDS011;54058;52.010;5.546;2022-12-18T06:40:30;25.00;;;12.33;;
67140;SDS011;54058;52.010;5.546;2022-12-18T06:42:56;25.50;;;11.93;;
67140;SDS011;54058;52.010;5.546;2022-12-18T06:45:22;28.17;;;12.43;;
67140;SDS011;54058;52.010;5.546;2022-12-18T06:47:47;23.23;;;11.57;;
67140;SDS011;54058;52.010;5.546;2022-12-18T06:50:13;21.07;;;11.70;;
67140;SDS011;54058;52.010;5.546;2022-12-18T06:52:39;26.43;;;12.00;;
67140;SDS011;54058;52.010;5.546;2022-12-18T06:55:05;25.77;;;12.90;;
67140;SDS011;54058;52.010;5.546;2022-12-18T06:59:58;22.20;;;9.97;;
67140;SDS011;54058;52.010;5.546;2022-12-18T07:02:24;22.77;;;11.60;;
67140;SDS011;54058;52.010;5.546;2022-12-18T07:04:49;22.13;;;10.70;;
67140;SDS011;54058;52.010;5.546;2022-12-18T07:07:15;23.03;;;10.90;;
67140;SDS011;54058;52.010;5.546;2022-12-18T07:09:40;21.53;;;11.00;;
67140;SDS011;54058;52.010;5.546;2022-12-18T07:12:06;24.20;;;11.77;;
67140;SDS011;54058;52.010;5.546;2022-12-18T07:14:33;25.03;;;10.63;;
67140;SDS011;54058;52.010;5.546;2022-12-18T07:16:58;19.47;;;10.80;;
67140;SDS011;54058;52.010;5.546;2022-12-18T07:19:24;20.03;;;11.07;;
67140;SDS011;54058;52.010;5.546;2022-12-18T07:21:50;17.97;;;10.23;;
67140;SDS011;54058;52.010;5.546;2022-12-18T07:24:16;20.13;;;10.10;;
67140;SDS011;54058;52.010;5.546;2022-12-18T07:26:45;22.63;;;10.70;;
67140;SDS011;54058;52.010;5.546;2022-12-18T07:29:11;24.60;;;10.60;;
67140;SDS011;54058;52.010;5.546;2022-12-18T07:31:37;21.87;;;10.60;;
67140;SDS011;54058;52.010;5.546;2022-12-18T07:34:02;20.73;;;10.10;;
67140;SDS011;54058;52.010;5.546;2022-12-18T07:36:28;22.53;;;10.60;;
67140;SDS011;54058;52.010;5.546;2022-12-18T07:38:53;21.80;;;10.57;;
67140;SDS011;54058;52.010;5.546;2022-12-18T07:41:19;20.10;;;10.07;;
67140;SDS011;54058;52.010;5.546;2022-12-18T07:43:45;22.80;;;10.57;;
67140;SDS011;54058;52.010;5.546;2022-12-18T07:46:11;19.03;;;10.77;;
67140;SDS011;54058;52.010;5.546;2022-12-18T07:48:41;26.40;;;10.83;;
67140;SDS011;54058;52.010;5.546;2022-12-18T07:51:07;21.42;;;11.07;;
67140;SDS011;54058;52.010;5.546;2022-12-18T07:53:33;20.63;;;10.53;;
67140;SDS011;54058;52.010;5.546;2022-12-18T07:56:00;22.77;;;11.53;;
67140;SDS011;54058;52.010;5.546;2022-12-18T07:58:29;20.03;;;10.33;;
67140;SDS011;54058;52.010;5.546;2022-12-18T08:01:01;21.87;;;10.47;;
67140;SDS011;54058;52.010;5.546;2022-12-18T08:03:28;19.53;;;10.63;;
67140;SDS011;54058;52.010;5.546;2022-12-18T08:05:57;18.80;;;10.07;;
67140;SDS011;54058;52.010;5.546;2022-12-18T08:08:27;19.73;;;10.47;;
67140;SDS011;54058;52.010;5.546;2022-12-18T08:10:53;27.40;;;11.30;;
67140;SDS011;54058;52.010;5.546;2022-12-18T08:13:19;22.20;;;10.90;;
67140;SDS011;54058;52.010;5.546;2022-12-18T08:15:45;22.83;;;11.23;;
67140;SDS011;54058;52.010;5.546;2022-12-18T08:18:10;22.37;;;11.03;;
67140;SDS011;54058;52.010;5.546;2022-12-18T08:20:36;20.03;;;10.67;;
67140;SDS011;54058;52.010;5.546;2022-12-18T08:23:01;26.23;;;11.90;;
67140;SDS011;54058;52.010;5.546;2022-12-18T08:25:27;20.47;;;10.10;;
67140;SDS011;54058;52.010;5.546;2022-12-18T08:27:53;20.50;;;10.37;;
67140;SDS011;54058;52.010;5.546;2022-12-18T08:30:18;19.60;;;10.33;;
67140;SDS011;54058;52.010;5.546;2022-12-18T08:32:44;21.17;;;10.50;;
67140;SDS011;54058;52.010;5.546;2022-12-18T08:35:10;26.93;;;11.97;;
67140;SDS011;54058;52.010;5.546;2022-12-18T08:37:36;24.60;;;11.30;;
67140;SDS011;54058;52.010;5.546;2022-12-18T08:40:02;22.07;;;9.87;;
67140;SDS011;54058;52.010;5.546;2022-12-18T08:42:28;24.17;;;10.93;;
67140;SDS011;54058;52.010;5.546;2022-12-18T08:45:12;22.80;;;10.50;;
67140;SDS011;54058;52.010;5.546;2022-12-18T08:47:38;24.85;;;10.85;;
67140;SDS011;54058;52.010;5.546;2022-12-18T08:50:04;25.37;;;10.87;;
67140;SDS011;54058;52.010;5.546;2022-12-18T08:52:31;21.85;;;10.70;;
67140;SDS011;54058;52.010;5.546;2022-12-18T08:54:57;21.20;;;10.67;;
67140;SDS011;54058;52.010;5.546;2022-12-18T08:57:23;22.33;;;10.32;;
67140;SDS011;54058;52.010;5.546;2022-12-18T08:59:49;23.27;;;10.87;;
67140;SDS011;54058;52.010;5.546;2022-12-18T09:02:14;18.73;;;10.20;;
67140;SDS011;54058;52.010;5.546;2022-12-18T09:04:40;19.77;;;9.65;;
67140;SDS011;54058;52.010;5.546;2022-12-18T09:07:06;17.33;;;9.50;;
67140;SDS011;54058;52.010;5.546;2022-12-18T09:09:32;22.85;;;10.73;;
67140;SDS011;54058;52.010;5.546;2022-12-18T09:11:57;16.97;;;9.43;;
67140;SDS011;54058;52.010;5.546;2022-12-18T09:14:23;22.30;;;10.65;;
67140;SDS011;54058;52.010;5.546;2022-12-18T09:16:49;19.42;;;10.30;;
67140;SDS011;54058;52.010;5.546;2022-12-18T09:19:14;17.00;;;9.80;;
67140;SDS011;54058;52.010;5.546;2022-12-18T09:21:40;19.40;;;10.17;;
67140;SDS011;54058;52.010;5.546;2022-12-18T09:24:08;18.30;;;10.20;;
67140;SDS011;54058;52.010;5.546;2022-12-18T09:26:39;17.83;;;9.73;;
67140;SDS011;54058;52.010;5.546;2022-12-18T09:29:05;18.25;;;10.50;;
67140;SDS011;54058;52.010;5.546;2022-12-18T09:31:32;20.00;;;10.00;;
67140;SDS011;54058;52.010;5.546;2022-12-18T09:33:58;17.40;;;9.30;;
67140;SDS011;54058;52.010;5.546;2022-12-18T09:36:24;16.02;;;9.50;;
67140;SDS011;54058;52.010;5.546;2022-12-18T09:38:50;16.17;;;9.20;;
67140;SDS011;54058;52.010;5.546;2022-12-18T09:43:46;17.85;;;9.50;;
67140;SDS011;54058;52.010;5.546;2022-12-18T09:46:31;21.08;;;10.68;;
67140;SDS011;54058;52.010;5.546;2022-12-18T09:49:02;17.50;;;9.23;;
67140;SDS011;54058;52.010;5.546;2022-12-18T09:51:55;18.60;;;9.73;;
67140;SDS011;54058;52.010;5.546;2022-12-18T09:54:32;17.38;;;9.32;;
67140;SDS011;54058;52.010;5.546;2022-12-18T09:57:22;14.75;;;9.00;;
67140;SDS011;54058;52.010;5.546;2022-12-18T09:59:59;17.80;;;9.48;;
67140;SDS011;54058;52.010;5.546;2022-12-18T10:02:47;18.77;;;9.95;;
67140;SDS011;54058;52.010;5.546;2022-12-18T10:05:17;20.60;;;9.27;;
67140;SDS011;54058;52.010;5.546;2022-12-18T10:10:40;15.63;;;9.10;;
67140;SDS011;54058;52.010;5.546;2022-12-18T10:19:00;16.52;;;8.98;;
67140;SDS011;54058;52.010;5.546;2022-12-18T10:26:46;18.63;;;9.60;;
67140;SDS011;54058;52.010;5.546;2022-12-18T10:29:13;19.13;;;8.77;;
67140;SDS011;54058;52.010;5.546;2022-12-18T10:31:40;14.90;;;8.02;;
67140;SDS011;54058;52.010;5.546;2022-12-18T10:34:09;15.23;;;8.25;;
67140;SDS011;54058;52.010;5.546;2022-12-18T10:36:35;17.60;;;9.10;;
67140;SDS011;54058;52.010;5.546;2022-12-18T10:41:51;17.58;;;8.75;;
67140;SDS011;54058;52.010;5.546;2022-12-18T10:44:33;16.85;;;8.55;;
67140;SDS011;54058;52.010;5.546;2022-12-18T10:47:03;14.63;;;8.93;;
67140;SDS011;54058;52.010;5.546;2022-12-18T10:49:32;15.63;;;8.40;;
67140;SDS011;54058;52.010;5.546;2022-12-18T10:52:14;15.45;;;8.43;;
67140;SDS011;54058;52.010;5.546;2022-12-18T10:54:46;14.57;;;8.60;;
67140;SDS011;54058;52.010;5.546;2022-12-18T10:57:28;14.00;;;7.80;;
67140;SDS011;54058;52.010;5.546;2022-12-18T10:59:58;14.13;;;8.05;;
67140;SDS011;54058;52.010;5.546;2022-12-18T11:02:27;18.27;;;9.18;;
67140;SDS011;54058;52.010;5.546;2022-12-18T11:04:53;13.45;;;7.82;;
67140;SDS011;54058;52.010;5.546;2022-12-18T11:07:19;17.02;;;8.55;;
67140;SDS011;54058;52.010;5.546;2022-12-18T11:09:45;17.08;;;8.30;;
67140;SDS011;54058;52.010;5.546;2022-12-18T11:12:27;14.73;;;8.55;;
67140;SDS011;54058;52.010;5.546;2022-12-18T11:14:54;18.52;;;9.32;;
67140;SDS011;54058;52.010;5.546;2022-12-18T11:17:22;14.98;;;7.93;;
67140;SDS011;54058;52.010;5.546;2022-12-18T11:19:54;19.70;;;8.45;;
67140;SDS011;54058;52.010;5.546;2022-12-18T11:22:25;15.80;;;8.80;;
67140;SDS011;54058;52.010;5.546;2022-12-18T11:27:32;16.33;;;8.43;;
67140;SDS011;54058;52.010;5.546;2022-12-18T11:33:04;19.38;;;8.57;;
67140;SDS011;54058;52.010;5.546;2022-12-18T11:35:44;16.25;;;8.35;;
67140;SDS011;54058;52.010;5.546;2022-12-18T11:43:38;16.35;;;9.15;;
67140;SDS011;54058;52.010;5.546;2022-12-18T11:46:23;16.23;;;8.73;;
67140;SDS011;54058;52.010;5.546;2022-12-18T11:54:33;16.65;;;8.38;;
67140;SDS011;54058;52.010;5.546;2022-12-18T12:07:48;18.73;;;8.45;;
67140;SDS011;54058;52.010;5.546;2022-12-18T12:10:25;14.85;;;9.05;;
67140;SDS011;54058;52.010;5.546;2022-12-18T12:18:56;21.27;;;10.05;;
67140;SDS011;54058;52.010;5.546;2022-12-18T12:21:58;15.30;;;8.95;;
67140;SDS011;54058;52.010;5.546;2022-12-18T12:38:02;16.33;;;8.32;;
67140;SDS011;54058;52.010;5.546;2022-12-18T12:40:38;16.80;;;8.68;;
67140;SDS011;54058;52.010;5.546;2022-12-18T12:46:07;17.80;;;9.68;;
67140;SDS011;54058;52.010;5.546;2022-12-18T12:48:46;16.83;;;9.93;;
67140;SDS011;54058;52.010;5.546;2022-12-18T12:51:18;19.17;;;8.90;;
67140;SDS011;54058;52.010;5.546;2022-12-18T12:53:50;17.73;;;8.70;;
67140;SDS011;54058;52.010;5.546;2022-12-18T12:56:18;16.27;;;9.27;;
67140;SDS011;54058;52.010;5.546;2022-12-18T13:01:41;19.25;;;8.50;;
67140;SDS011;54058;52.010;5.546;2022-12-18T13:04:39;20.63;;;8.93;;
67140;SDS011;54058;52.010;5.546;2022-12-18T13:07:18;16.58;;;9.15;;
67140;SDS011;54058;52.010;5.546;2022-12-18T13:10:11;18.25;;;9.80;;
67140;SDS011;54058;52.010;5.546;2022-12-18T13:15:48;18.13;;;8.75;;
67140;SDS011;54058;52.010;5.546;2022-12-18T13:18:29;14.70;;;9.25;;
67140;SDS011;54058;52.010;5.546;2022-12-18T13:25:51;15.95;;;8.63;;
67140;SDS011;54058;52.010;5.546;2022-12-18T13:33:40;17.33;;;9.13;;
67140;SDS011;54058;52.010;5.546;2022-12-18T13:36:44;18.20;;;9.48;;
67140;SDS011;54058;52.010;5.546;2022-12-18T13:41:44;15.70;;;9.27;;
67140;SDS011;54058;52.010;5.546;2022-12-18T13:46:52;19.17;;;9.73;;
67140;SDS011;54058;52.010;5.546;2022-12-18T13:49:20;19.70;;;11.25;;
67140;SDS011;54058;52.010;5.546;2022-12-18T13:51:49;26.00;;;11.65;;
67140;SDS011;54058;52.010;5.546;2022-12-18T13:57:02;19.45;;;9.60;;
67140;SDS011;54058;52.010;5.546;2022-12-18T14:01:59;21.23;;;10.23;;
67140;SDS011;54058;52.010;5.546;2022-12-18T14:04:31;19.45;;;10.23;;
67140;SDS011;54058;52.010;5.546;2022-12-18T14:07:05;19.83;;;10.25;;
67140;SDS011;54058;52.010;5.546;2022-12-18T14:09:54;19.90;;;10.80;;
67140;SDS011;54058;52.010;5.546;2022-12-18T14:12:26;17.83;;;9.65;;
67140;SDS011;54058;52.010;5.546;2022-12-18T14:18:01;16.98;;;9.50;;
67140;SDS011;54058;52.010;5.546;2022-12-18T14:20:45;15.43;;;9.23;;
67140;SDS011;54058;52.010;5.546;2022-12-18T14:25:55;18.10;;;9.38;;
67140;SDS011;54058;52.010;5.546;2022-12-18T14:28:21;17.10;;;9.40;;
67140;SDS011;54058;52.010;5.546;2022-12-18T14:30:47;20.15;;;10.60;;
67140;SDS011;54058;52.010;5.546;2022-12-18T14:33:18;17.45;;;9.88;;
67140;SDS011;54058;52.010;5.546;2022-12-18T14:35:53;17.92;;;10.15;;
67140;SDS011;54058;52.010;5.546;2022-12-18T14:38:36;23.25;;;10.93;;
67140;SDS011;54058;52.010;5.546;2022-12-18T14:41:05;18.13;;;10.25;;
67140;SDS011;54058;52.010;5.546;2022-12-18T14:43:35;24.08;;;10.35;;
67140;SDS011;54058;52.010;5.546;2022-12-18T14:46:06;23.05;;;10.80;;
67140;SDS011;54058;52.010;5.546;2022-12-18T14:48:57;23.65;;;11.00;;
67140;SDS011;54058;52.010;5.546;2022-12-18T14:54:01;18.08;;;10.35;;
67140;SDS011;54058;52.010;5.546;2022-12-18T14:56:33;20.30;;;9.95;;
67140;SDS011;54058;52.010;5.546;2022-12-18T14:59:01;20.50;;;10.25;;
67140;SDS011;54058;52.010;5.546;2022-12-18T15:01:33;18.48;;;10.00;;
67140;SDS011;54058;52.010;5.546;2022-12-18T15:04:02;20.80;;;10.98;;
67140;SDS011;54058;52.010;5.546;2022-12-18T15:08:55;24.58;;;10.70;;
67140;SDS011;54058;52.010;5.546;2022-12-18T15:11:35;22.48;;;10.95;;
67140;SDS011;54058;52.010;5.546;2022-12-18T15:17:00;22.27;;;11.20;;
67140;SDS011;54058;52.010;5.546;2022-12-18T15:19:38;18.45;;;10.05;;
67140;SDS011;54058;52.010;5.546;2022-12-18T15:22:39;18.63;;;10.48;;
67140;SDS011;54058;52.010;5.546;2022-12-18T15:25:01;18.40;;;11.15;;
67140;SDS011;54058;52.010;5.546;2022-12-18T15:27:35;22.27;;;11.18;;
67140;SDS011;54058;52.010;5.546;2022-12-18T15:32:35;20.02;;;10.13;;
67140;SDS011;54058;52.010;5.546;2022-12-18T15:37:36;19.08;;;9.82;;
67140;SDS011;54058;52.010;5.546;2022-12-18T15:40:02;21.30;;;11.27;;
67140;SDS011;54058;52.010;5.546;2022-12-18T15:42:29;23.33;;;11.50;;
67140;SDS011;54058;52.010;5.546;2022-12-18T15:45:13;19.30;;;10.35;;
67140;SDS011;54058;52.010;5.546;2022-12-18T15:47:39;18.02;;;10.55;;
67140;SDS011;54058;52.010;5.546;2022-12-18T15:50:08;22.88;;;11.98;;
67140;SDS011;54058;52.010;5.546;2022-12-18T15:52:42;23.70;;;12.70;;
67140;SDS011;54058;52.010;5.546;2022-12-18T15:55:16;19.23;;;10.25;;
67140;SDS011;54058;52.010;5.546;2022-12-18T15:58:01;21.50;;;11.07;;
67140;SDS011;54058;52.010;5.546;2022-12-18T16:00:27;23.20;;;10.15;;
67140;SDS011;54058;52.010;5.546;2022-12-18T16:02:53;23.15;;;11.32;;
67140;SDS011;54058;52.010;5.546;2022-12-18T16:05:19;22.08;;;11.45;;
67140;SDS011;54058;52.010;5.546;2022-12-18T16:07:46;28.70;;;11.55;;
67140;SDS011;54058;52.010;5.546;2022-12-18T16:10:12;22.98;;;12.25;;
67140;SDS011;54058;52.010;5.546;2022-12-18T16:12:38;22.60;;;11.25;;
67140;SDS011;54058;52.010;5.546;2022-12-18T16:15:04;24.55;;;11.68;;
67140;SDS011;54058;52.010;5.546;2022-12-18T16:17:31;22.38;;;11.23;;
67140;SDS011;54058;52.010;5.546;2022-12-18T16:19:57;22.77;;;12.13;;
67140;SDS011;54058;52.010;5.546;2022-12-18T16:22:27;23.27;;;12.05;;
67140;SDS011;54058;52.010;5.546;2022-12-18T16:24:55;22.25;;;12.25;;
67140;SDS011;54058;52.010;5.546;2022-12-18T16:27:23;25.65;;;12.48;;
67140;SDS011;54058;52.010;5.546;2022-12-18T16:29:49;25.85;;;11.95;;
67140;SDS011;54058;52.010;5.546;2022-12-18T16:32:16;24.58;;;12.35;;
67140;SDS011;54058;52.010;5.546;2022-12-18T16:34:43;20.60;;;11.75;;
67140;SDS011;54058;52.010;5.546;2022-12-18T16:37:10;21.83;;;12.50;;
67140;SDS011;54058;52.010;5.546;2022-12-18T16:39:38;30.67;;;13.23;;
67140;SDS011;54058;52.010;5.546;2022-12-18T16:42:05;26.48;;;13.05;;
67140;SDS011;54058;52.010;5.546;2022-12-18T16:44:37;26.10;;;12.27;;
67140;SDS011;54058;52.010;5.546;2022-12-18T16:47:03;25.80;;;12.43;;
67140;SDS011;54058;52.010;5.546;2022-12-18T16:49:28;22.10;;;12.45;;
67140;SDS011;54058;52.010;5.546;2022-12-18T16:51:54;23.05;;;12.38;;
67140;SDS011;54058;52.010;5.546;2022-12-18T16:54:20;24.10;;;12.57;;
67140;SDS011;54058;52.010;5.546;2022-12-18T16:56:46;21.63;;;12.23;;
67140;SDS011;54058;52.010;5.546;2022-12-18T16:59:14;27.40;;;12.80;;